KCSM/CSM METAR and TAF weather

Enter ICAO airport designator
Station Type Date Time Source
KCSM METAR 2019/10/21 05:53 UTC NOAA

KCSM 210553Z AUTO 33017G26KT 10SM CLR 13/M07 A2974 RMK AO2 PK WND 33032/0535 SLP057 T01281067 10217 20122 402780078 53011


Station Type Date Time Source
KCSM Decoded METAR 2019/10/21 05:53 UTC NOAA

CLINTON-SHERMAN AIRPORT, OK, United States (KCSM) 35-21E 99-12W 588M
Oct 21, 2019 - 01:53 AM EDT / 2019.10.21 0553 UTC
Wind: from the NNW (330 degrees) at 20 MPH (17 KT) gusting to 30 MPH (26 KT):0
Visibility: 10 mile(s):0
Sky conditions: clear
Temperature: 55.0 F (12.8 C)
Dew Point: 19.9 F (-6.7 C)
Relative Humidity: 25%
Pressure (altimeter): 29.74 in. Hg (1007 hPa)
Pressure tendency: 0.03 inches (1.1 hPa) higher than three hours ago
ob: KCSM 210553Z AUTO 33017G26KT 10SM CLR 13/M07 A2974 RMK AO2 PK WND 33032/0535 SLP057 T01281067 10217 20122 402780078 53011
cycle: 6

Station Type Date Time Source
KCSM TAF 2019/10/21 06:22 UTC NOAA

TAF KCSM 210520Z 2106/2206 35013KT P6SM FEW250
FM211000 32011KT P6SM SKC WS020/34045KT
FM211600 30012KT P6SM SKC

Example: see airport list